Time;durP1;ratioP1;P1;durP2;ratioP2;P2;SDS_P1;SDS_P2;PMS_P1;PMS_P2;Temp;Humidity;BMP_temperature;BMP_pressure;BME280_temperature;BME280_humidity;BME280_pressure;Samples;Min_cycle;Max_cycle;Signal;HPM_P1;HPM_P2
2022/04/14 00:02:04;;;;;;;;;;;;;;;13.60;38.37;92738.56;2057460;69;20058;-67
2022/04/14 00:04:30;;;;;;;;;;;;;;;13.52;38.73;92743.81;2057968;69;20425;-67
2022/04/14 00:06:55;;;;;;;;;;;;;;;13.44;39.21;92744.13;2058119;69;20061;-71
2022/04/14 00:09:22;;;;;;;;;;;;;;;13.90;36.64;92745.72;2057931;69;20050;-70
2022/04/14 00:11:47;;;;;;;;;;;;;;;13.44;39.05;92750.53;2057830;69;20061;-70
2022/04/14 00:14:13;;;;;;;;;;;;;;;13.35;40.02;92748.63;2057706;69;20050;-70
2022/04/14 00:16:40;;;;;;;;;;;;;;;13.47;39.41;92748.53;2057483;69;20109;-67
2022/04/14 00:19:05;;;;;;;;;;;;;;;13.48;39.73;92753.56;2057953;69;20057;-66
2022/04/14 00:21:31;;;;;;;;;;;;;;;13.09;40.71;92750.78;2058076;69;20149;-67
2022/04/14 00:23:56;;;;;;;;;;;;;;;13.35;39.48;92753.56;2058017;69;20053;-67
2022/04/14 00:26:22;;;;;;;;;;;;;;;13.11;40.64;92755.84;2058251;69;20050;-67
2022/04/14 00:28:47;;;;;;;;;;;;;;;13.10;40.47;92754.34;2057870;69;20493;-67
2022/04/14 00:31:13;;;;;;;;;;;;;;;13.09;39.96;92752.91;2057892;69;20053;-67
2022/04/14 00:33:38;;;;;;;;;;;;;;;13.09;40.80;92752.91;2057419;69;20514;-67
2022/04/14 00:36:04;;;;;;;;;;;;;;;13.09;40.88;92758.53;2057950;69;20492;-68
2022/04/14 00:38:29;;;;;;;;;;;;;;;12.82;41.36;92768.44;2058289;69;20054;-68
2022/04/14 00:40:55;;;;;;;;;;;;;;;13.09;39.24;92758.53;2057981;69;20054;-67
2022/04/14 00:43:31;;;;;;;;;;;;;;;12.91;41.01;92761.13;2057917;69;20046;-67
2022/04/14 00:45:57;;;;;;;;;;;;;;;12.89;41.33;92766.69;2057705;69;20810;-67
2022/04/14 00:48:23;;;;;;;;;;;;;;;12.83;40.96;92761.47;2058007;69;20052;-68
2022/04/14 00:50:48;;;;;;;;;;;;;;;12.91;40.64;92769.63;2058086;69;20188;-67
2022/04/14 00:53:14;;;;;;;;;;;;;;;12.69;41.66;92766.31;2057931;69;20137;-67
2022/04/14 00:55:39;;;;;;;;;;;;;;;12.81;41.46;92766.25;2058006;69;20088;-68
2022/04/14 00:58:05;;;;;;;;;;;;;;;13.10;38.71;92763.59;2058094;69;20482;-69
2022/04/14 01:00:33;;;;;;;;;;;;;;;12.91;40.31;92770.34;2057360;69;20124;-66
2022/04/14 01:02:59;;;;;;;;;;;;;;;12.70;41.57;92762.91;2057538;69;20505;-66
2022/04/14 01:05:25;;;;;;;;;;;;;;;12.67;41.58;92764.13;2057879;69;20066;-67
2022/04/14 01:07:51;;;;;;;;;;;;;;;12.84;39.24;92765.75;2057289;69;20049;-66
2022/04/14 01:10:16;;;;;;;;;;;;;;;12.63;41.54;92768.84;2057836;69;20535;-68
2022/04/14 01:12:42;;;;;;;;;;;;;;;12.63;41.68;92769.56;2057599;69;20153;-68
2022/04/14 01:15:14;;;;;;;;;;;;;;;12.09;43.58;92779.28;2057461;69;20121;-68
2022/04/14 01:17:40;;;;;;;;;;;;;;;12.53;41.59;92788.06;2057547;69;20116;-71
2022/04/14 01:20:08;;;;;;;;;;;;;;;12.50;42.09;92786.47;2058059;69;20046;-68
2022/04/14 01:22:38;;;;;;;;;;;;;;;12.34;42.62;92784.22;2057681;69;20058;-68
2022/04/14 01:25:04;;;;;;;;;;;;;;;12.45;41.03;92791.88;2057307;69;20173;-67
2022/04/14 01:27:30;;;;;;;;;;;;;;;12.55;40.92;92786.06;2058193;69;20112;-69
2022/04/14 01:29:55;;;;;;;;;;;;;;;12.15;43.46;92795.84;2057549;69;20517;-69
2022/04/14 01:32:21;;;;;;;;;;;;;;;12.38;42.48;92792.19;2057957;69;20046;-70
2022/04/14 01:34:47;;;;;;;;;;;;;;;12.29;42.98;92801.56;2057221;69;20042;-68
2022/04/14 01:37:12;;;;;;;;;;;;;;;12.24;43.17;92797.78;2057979;69;20436;-67
2022/04/14 01:39:38;;;;;;;;;;;;;;;12.24;42.96;92794.94;2057845;69;20444;-66
2022/04/14 01:42:04;;;;;;;;;;;;;;;12.07;43.43;92792.56;2057302;69;20515;-68
2022/04/14 01:44:30;;;;;;;;;;;;;;;12.01;43.15;92803.50;2056044;69;20062;-72
2022/04/14 01:46:56;;;;;;;;;;;;;;;12.03;42.55;92800.78;2057835;69;20056;-67
2022/04/14 01:49:21;;;;;;;;;;;;;;;12.09;42.98;92813.16;2057706;69;20054;-69
2022/04/14 01:51:49;;;;;;;;;;;;;;;11.92;43.45;92811.50;2057738;69;20124;-70
2022/04/14 01:54:15;;;;;;;;;;;;;;;11.97;43.37;92811.75;2057566;69;20140;-67
2022/04/14 01:56:41;;;;;;;;;;;;;;;11.82;43.47;92819.38;2057951;69;20506;-67
2022/04/14 01:59:07;;;;;;;;;;;;;;;12.28;40.70;92817.00;2057626;69;20118;-68
2022/04/14 02:01:33;;;;;;;;;;;;;;;11.76;44.27;92815.44;2057623;69;20571;-68
2022/04/14 02:03:58;;;;;;;;;;;;;;;11.90;43.15;92810.66;2057491;69;20085;-67
2022/04/14 02:06:24;;;;;;;;;;;;;;;11.85;43.58;92815.31;2057783;69;20512;-67
2022/04/14 02:08:50;;;;;;;;;;;;;;;11.94;43.38;92813.69;2057910;69;20073;-67
2022/04/14 02:11:15;;;;;;;;;;;;;;;11.92;43.17;92822.78;2057659;69;20054;-67
2022/04/14 02:13:42;;;;;;;;;;;;;;;11.89;43.08;92814.81;2056997;69;20461;-67
2022/04/14 02:16:08;;;;;;;;;;;;;;;11.83;42.93;92815.22;2057633;69;20081;-67
2022/04/14 02:18:34;;;;;;;;;;;;;;;12.18;40.89;92814.34;2057665;69;20412;-70
2022/04/14 02:20:59;;;;;;;;;;;;;;;11.99;42.14;92817.50;2057821;69;20564;-70
2022/04/14 02:23:25;;;;;;;;;;;;;;;12.04;42.69;92816.38;2057025;69;20857;-66
2022/04/14 02:25:51;;;;;;;;;;;;;;;11.56;44.54;92823.47;2057927;69;20046;-67
2022/04/14 02:28:16;;;;;;;;;;;;;;;11.78;42.04;92807.84;2057481;69;20529;-68
2022/04/14 02:30:42;;;;;;;;;;;;;;;11.88;41.56;92816.91;2057945;69;20042;-68
2022/04/14 02:33:08;;;;;;;;;;;;;;;11.68;43.37;92824.16;2056819;69;20069;-67
2022/04/14 02:35:33;;;;;;;;;;;;;;;11.57;44.00;92822.84;2057839;69;20070;-67
2022/04/14 02:37:58;;;;;;;;;;;;;;;11.63;43.48;92817.53;2057426;69;20070;-66
2022/04/14 02:40:24;;;;;;;;;;;;;;;11.69;42.85;92820.00;2057099;69;20058;-69
2022/04/14 02:42:50;;;;;;;;;;;;;;;11.78;42.57;92813.47;2058028;69;20145;-67
2022/04/14 02:45:16;;;;;;;;;;;;;;;12.15;40.15;92821.97;2057409;69;20062;-69
2022/04/14 02:47:41;;;;;;;;;;;;;;;11.88;41.43;92819.72;2057607;69;20168;-68
2022/04/14 02:50:07;;;;;;;;;;;;;;;12.01;40.53;92817.63;2057727;69;20092;-69
2022/04/14 02:52:32;;;;;;;;;;;;;;;12.23;40.19;92816.03;2057849;69;20464;-70
2022/04/14 02:54:58;;;;;;;;;;;;;;;12.25;38.66;92816.16;2058000;69;20093;-70
2022/04/14 02:57:23;;;;;;;;;;;;;;;12.09;40.07;92823.72;2057932;69;20052;-69
2022/04/14 02:59:49;;;;;;;;;;;;;;;11.88;41.64;92827.47;2057835;69;20068;-69
2022/04/14 03:02:14;;;;;;;;;;;;;;;11.72;42.21;92821.56;2057990;69;20049;-70
2022/04/14 03:04:40;;;;;;;;;;;;;;;11.83;41.11;92826.50;2058092;69;20093;-69
2022/04/14 03:07:05;;;;;;;;;;;;;;;11.48;43.23;92832.16;2058288;69;20046;-69
2022/04/14 03:09:31;;;;;;;;;;;;;;;11.68;42.75;92833.38;2057806;69;20042;-68
2022/04/14 03:11:56;;;;;;;;;;;;;;;11.38;44.29;92837.19;2057603;69;20056;-68
2022/04/14 03:14:22;;;;;;;;;;;;;;;11.49;44.09;92832.88;2058174;69;20081;-68
2022/04/14 03:16:47;;;;;;;;;;;;;;;11.55;43.05;92841.72;2057932;69;20080;-69
2022/04/14 03:19:13;;;;;;;;;;;;;;;11.52;42.66;92845.78;2057686;69;20058;-69
2022/04/14 03:21:38;;;;;;;;;;;;;;;11.45;41.97;92847.47;2058421;69;20058;-71
2022/04/14 03:24:04;;;;;;;;;;;;;;;11.38;43.70;92845.66;2058384;69;20124;-69
2022/04/14 03:26:29;;;;;;;;;;;;;;;11.22;44.52;92839.03;2058363;69;20082;-73
2022/04/14 03:28:55;;;;;;;;;;;;;;;11.15;44.86;92835.84;2058228;69;20058;-70
2022/04/14 03:31:20;;;;;;;;;;;;;;;11.11;44.97;92835.59;2058627;69;20070;-69
2022/04/14 03:33:45;;;;;;;;;;;;;;;10.92;44.36;92847.09;2058507;69;20053;-70
2022/04/14 03:36:11;;;;;;;;;;;;;;;11.04;44.16;92828.13;2058666;69;20049;-69
2022/04/14 03:38:36;;;;;;;;;;;;;;;11.16;44.33;92833.75;2058009;69;20167;-68
2022/04/14 03:41:06;;;;;;;;;;;;;;;11.21;42.51;92841.09;2058459;69;20152;-68
2022/04/14 03:43:32;;;;;;;;;;;;;;;11.29;43.28;92849.34;2057961;69;20057;-67
2022/04/14 03:45:57;;;;;;;;;;;;;;;11.10;44.53;92851.03;2058703;69;20054;-69
2022/04/14 03:48:23;;;;;;;;;;;;;;;11.31;41.70;92849.44;2058115;69;20053;-66
2022/04/14 03:50:48;;;;;;;;;;;;;;;11.19;43.73;92841.72;2058586;69;20073;-68
2022/04/14 03:53:14;;;;;;;;;;;;;;;11.00;44.87;92844.78;2058328;69;20186;-70
2022/04/14 03:55:39;;;;;;;;;;;;;;;10.94;45.63;92835.94;2058454;69;20054;-70
2022/04/14 03:58:05;;;;;;;;;;;;;;;11.02;44.48;92855.44;2058100;69;20057;-69
2022/04/14 04:00:30;;;;;;;;;;;;;;;11.00;44.56;92844.06;2058607;69;20050;-69
2022/04/14 04:02:55;;;;;;;;;;;;;;;10.87;45.49;92859.47;2058448;69;20046;-70
2022/04/14 04:05:21;;;;;;;;;;;;;;;10.76;45.51;92851.72;2058689;69;20050;-68
2022/04/14 04:07:47;;;;;;;;;;;;;;;10.80;45.78;92854.78;2058324;69;20053;-67
2022/04/14 04:10:12;;;;;;;;;;;;;;;10.69;45.47;92856.25;2058232;69;20123;-67
2022/04/14 04:12:38;;;;;;;;;;;;;;;10.71;45.43;92859.19;2058548;69;20061;-67
2022/04/14 04:15:03;;;;;;;;;;;;;;;10.92;45.00;92858.38;2058229;69;20061;-69
2022/04/14 04:17:29;;;;;;;;;;;;;;;10.81;45.41;92870.34;2058213;69;20080;-68
2022/04/14 04:19:55;;;;;;;;;;;;;;;10.65;46.38;92870.78;2057542;69;20137;-68
2022/04/14 04:22:20;;;;;;;;;;;;;;;10.41;47.03;92867.19;2058446;69;20149;-69
2022/04/14 04:24:46;;;;;;;;;;;;;;;10.52;46.85;92874.19;2058359;69;20124;-68
2022/04/14 04:27:11;;;;;;;;;;;;;;;10.56;46.30;92870.91;2058399;69;20485;-73
2022/04/14 04:29:37;;;;;;;;;;;;;;;10.62;46.21;92868.47;2057910;69;20513;-71
2022/04/14 04:32:02;;;;;;;;;;;;;;;10.72;45.87;92869.13;2058106;69;20116;-68
2022/04/14 04:34:28;;;;;;;;;;;;;;;10.65;45.56;92870.06;2058483;69;20048;-68
2022/04/14 04:36:53;;;;;;;;;;;;;;;10.68;46.35;92872.41;2058518;69;20054;-66
2022/04/14 04:39:18;;;;;;;;;;;;;;;10.65;44.88;92864.44;2057956;69;20089;-67
2022/04/14 04:41:44;;;;;;;;;;;;;;;10.69;45.61;92873.13;2057827;69;20437;-67
2022/04/14 04:44:09;;;;;;;;;;;;;;;10.69;46.02;92859.78;2058605;69;20098;-67
2022/04/14 04:46:35;;;;;;;;;;;;;;;10.54;46.75;92870.78;2057719;69;20066;-68
2022/04/14 04:49:01;;;;;;;;;;;;;;;10.65;45.98;92867.97;2057451;69;20169;-69
2022/04/14 04:51:26;;;;;;;;;;;;;;;10.25;47.32;92868.94;2057756;69;20173;-67
2022/04/14 04:53:52;;;;;;;;;;;;;;;10.55;46.45;92872.97;2058013;69;20082;-68
2022/04/14 04:56:20;;;;;;;;;;;;;;;10.47;46.87;92875.28;2058266;69;20476;-67
2022/04/14 04:58:46;;;;;;;;;;;;;;;10.65;46.67;92884.13;2058465;69;20129;-69
2022/04/14 05:01:12;;;;;;;;;;;;;;;10.59;47.51;92889.41;2057720;69;20466;-68
2022/04/14 05:03:38;;;;;;;;;;;;;;;10.68;46.63;92883.66;2056923;69;20100;-67
2022/04/14 05:06:04;;;;;;;;;;;;;;;10.87;44.46;92891.19;2057432;69;20061;-71
2022/04/14 05:08:29;;;;;;;;;;;;;;;10.63;45.95;92890.38;2055169;70;20078;-69
2022/04/14 05:10:54;;;;;;;;;;;;;;;11.05;44.90;92894.41;2057478;69;20116;-68
2022/04/14 05:13:20;;;;;;;;;;;;;;;10.73;47.59;92906.44;2058602;69;20058;-70
2022/04/14 05:15:45;;;;;;;;;;;;;;;10.92;47.25;92906.25;2057560;69;20549;-69
2022/04/14 05:18:11;;;;;;;;;;;;;;;11.01;46.32;92902.59;2058516;69;20133;-68
2022/04/14 05:20:38;;;;;;;;;;;;;;;11.28;43.43;92904.97;2058024;69;20054;-68
2022/04/14 05:23:06;;;;;;;;;;;;;;;11.31;44.13;92903.72;2058410;69;20442;-68
2022/04/14 05:25:32;;;;;;;;;;;;;;;11.51;43.47;92901.41;2057388;69;20096;-68
2022/04/14 05:27:57;;;;;;;;;;;;;;;11.48;44.65;92904.72;2057115;69;21009;-68
2022/04/14 05:30:23;;;;;;;;;;;;;;;11.49;42.53;92906.91;2055027;69;20057;-69
2022/04/14 05:32:48;;;;;;;;;;;;;;;11.43;46.12;92910.09;2058386;69;20080;-69
2022/04/14 05:35:14;;;;;;;;;;;;;;;11.56;45.52;92910.84;2056610;69;20096;-71
2022/04/14 05:37:39;;;;;;;;;;;;;;;11.43;45.81;92909.38;2057459;69;20141;-67
2022/04/14 05:40:05;;;;;;;;;;;;;;;11.59;46.05;92909.63;2057926;69;20191;-68
2022/04/14 05:42:31;;;;;;;;;;;;;;;11.41;47.04;92898.00;2058177;69;20089;-68
2022/04/14 05:44:57;;;;;;;;;;;;;;;11.33;46.19;92895.41;2057579;69;20156;-69
2022/04/14 05:47:24;;;;;;;;;;;;;;;11.50;46.60;92897.13;2058081;69;20062;-68
2022/04/14 05:49:50;;;;;;;;;;;;;;;11.56;46.96;92883.41;2057840;69;20054;-69
2022/04/14 05:52:16;;;;;;;;;;;;;;;11.70;46.07;92887.06;2058415;69;20056;-69
2022/04/14 05:54:41;;;;;;;;;;;;;;;11.33;46.94;92894.66;2058354;69;20089;-69
2022/04/14 05:57:07;;;;;;;;;;;;;;;11.61;45.64;92892.84;2057972;69;20128;-69
2022/04/14 05:59:32;;;;;;;;;;;;;;;11.50;46.93;92894.31;2058269;69;20141;-69
2022/04/14 06:01:57;;;;;;;;;;;;;;;11.60;46.03;92889.28;2058318;69;20057;-69
2022/04/14 06:04:23;;;;;;;;;;;;;;;11.58;46.83;92891.22;2058353;69;20062;-69
2022/04/14 06:06:48;;;;;;;;;;;;;;;11.52;46.18;92891.59;2058029;69;20077;-71
2022/04/14 06:09:14;;;;;;;;;;;;;;;11.50;46.72;92893.56;2058219;69;20058;-69
2022/04/14 06:11:40;;;;;;;;;;;;;;;11.35;46.85;92894.78;2057481;69;20061;-70
2022/04/14 06:14:06;;;;;;;;;;;;;;;11.40;46.02;92894.41;2057559;69;20062;-74
2022/04/14 06:16:32;;;;;;;;;;;;;;;11.47;45.48;92895.53;2057000;69;20375;-69
2022/04/14 06:18:57;;;;;;;;;;;;;;;11.40;46.02;92896.50;2059364;69;20046;-71
2022/04/14 06:21:24;;;;;;;;;;;;;;;11.54;46.13;92902.25;2057876;69;20492;-70
2022/04/14 06:23:49;;;;;;;;;;;;;;;11.61;45.05;92890.75;2057909;69;20586;-70
2022/04/14 06:26:15;;;;;;;;;;;;;;;11.59;45.78;92887.06;2057423;69;20078;-70
2022/04/14 06:28:42;;;;;;;;;;;;;;;11.62;45.60;92894.28;2056503;69;20058;-71
2022/04/14 06:31:07;;;;;;;;;;;;;;;11.75;43.21;92890.84;2056488;69;20049;-68
2022/04/14 06:33:34;;;;;;;;;;;;;;;11.67;45.64;92893.19;2057401;69;20492;-67
2022/04/14 06:35:59;;;;;;;;;;;;;;;11.56;45.35;92889.03;2057870;69;20187;-68
2022/04/14 06:38:27;;;;;;;;;;;;;;;11.66;45.04;92886.81;2056518;69;20072;-68
2022/04/14 06:40:53;;;;;;;;;;;;;;;11.68;45.62;92886.19;2057578;69;20082;-70
2022/04/14 06:43:19;;;;;;;;;;;;;;;11.72;45.60;92889.25;2057243;69;20089;-69
2022/04/14 06:45:44;;;;;;;;;;;;;;;11.99;44.83;92888.03;2058338;69;20086;-68
2022/04/14 06:48:10;;;;;;;;;;;;;;;12.12;46.55;92899.41;2058323;69;20128;-68
2022/04/14 06:50:35;;;;;;;;;;;;;;;12.69;44.07;92894.19;2058409;69;20065;-69
2022/04/14 06:53:01;;;;;;;;;;;;;;;13.16;40.20;92893.19;2057597;69;20058;-70
2022/04/14 06:55:27;;;;;;;;;;;;;;;13.60;41.54;92899.78;2057720;69;20142;-73
2022/04/14 06:57:56;;;;;;;;;;;;;;;13.77;43.02;92893.63;2057187;69;20056;-70
2022/04/14 07:00:22;;;;;;;;;;;;;;;14.04;42.57;92883.66;2058156;69;20054;-72
2022/04/14 07:02:51;;;;;;;;;;;;;;;14.34;40.97;92884.44;2058419;69;20054;-73
2022/04/14 07:05:17;;;;;;;;;;;;;;;14.60;40.39;92885.78;2058215;69;20050;-72
2022/04/14 07:07:43;;;;;;;;;;;;;;;15.48;37.43;92884.94;2058052;69;20465;-68
2022/04/14 07:10:08;;;;;;;;;;;;;;;15.34;38.27;92889.25;2058641;69;20082;-67
2022/04/14 07:12:35;;;;;;;;;;;;;;;16.02;36.19;92888.06;2058565;69;20082;-67
2022/04/14 07:15:01;;;;;;;;;;;;;;;17.02;34.16;92886.56;2058666;69;20122;-69
2022/04/14 07:17:27;;;;;;;;;;;;;;;16.61;34.50;92892.69;2058293;69;20124;-69
2022/04/14 07:19:52;;;;;;;;;;;;;;;16.69;34.83;92893.75;2058418;69;20061;-70
2022/04/14 07:22:18;;;;;;;;;;;;;;;16.67;33.53;92887.25;2059698;69;20505;-72
2022/04/14 07:24:46;;;;;;;;;;;;;;;16.52;35.17;92883.09;2058664;69;20050;-71
2022/04/14 07:27:11;;;;;;;;;;;;;;;17.48;34.53;92884.06;2058532;69;20062;-69
2022/04/14 07:29:37;;;;;;;;;;;;;;;17.33;34.18;92879.97;2058668;69;20124;-69
2022/04/14 07:32:02;;;;;;;;;;;;;;;17.36;32.95;92869.38;2058608;69;20057;-69
2022/04/14 07:34:28;;;;;;;;;;;;;;;18.29;31.43;92880.66;2058778;69;20142;-69
2022/04/14 07:36:53;;;;;;;;;;;;;;;18.37;31.77;92866.69;2058756;69;20052;-69
2022/04/14 07:39:19;;;;;;;;;;;;;;;18.13;31.96;92865.81;2058528;69;20076;-68
2022/04/14 07:41:44;;;;;;;;;;;;;;;18.69;32.51;92869.19;2058060;69;20050;-68
2022/04/14 07:44:10;;;;;;;;;;;;;;;19.00;32.19;92871.66;2058729;69;20466;-68
2022/04/14 07:46:38;;;;;;;;;;;;;;;18.97;32.74;92863.72;2058364;69;20487;-71
2022/04/14 07:49:04;;;;;;;;;;;;;;;19.32;31.44;92873.34;2058857;69;20056;-71
2022/04/14 07:51:29;;;;;;;;;;;;;;;19.43;30.93;92870.16;2058611;69;20453;-69
2022/04/14 07:53:55;;;;;;;;;;;;;;;19.90;30.23;92870.84;2058338;69;20512;-69
2022/04/14 07:56:22;;;;;;;;;;;;;;;19.80;29.53;92872.00;2058654;69;20179;-69
2022/04/14 07:58:48;;;;;;;;;;;;;;;20.21;28.22;92875.28;2058589;69;20049;-69
2022/04/14 08:01:14;;;;;;;;;;;;;;;20.62;28.96;92877.16;2058631;69;20058;-69
2022/04/14 08:03:39;;;;;;;;;;;;;;;20.63;28.89;92875.75;2058690;69;20076;-73
2022/04/14 08:06:05;;;;;;;;;;;;;;;21.03;28.44;92876.06;2057549;69;20050;-69
2022/04/14 08:08:31;;;;;;;;;;;;;;;21.21;28.25;92875.78;2058162;69;20050;-68
2022/04/14 08:11:01;;;;;;;;;;;;;;;22.19;26.52;92880.13;2058722;69;20054;-70
2022/04/14 08:13:29;;;;;;;;;;;;;;;21.61;27.11;92880.28;2058781;69;20057;-72
2022/04/14 08:15:56;;;;;;;;;;;;;;;21.82;26.07;92880.03;2058557;69;20076;-74
2022/04/14 08:18:22;;;;;;;;;;;;;;;22.49;25.72;92877.13;2058472;69;20042;-69
2022/04/14 08:20:48;;;;;;;;;;;;;;;22.52;27.15;92873.59;2058019;69;20126;-70
2022/04/14 08:23:16;;;;;;;;;;;;;;;21.87;24.12;92880.84;2058535;69;20117;-73
2022/04/14 08:25:42;;;;;;;;;;;;;;;21.88;25.05;92870.13;2058487;69;20112;-74
2022/04/14 08:28:07;;;;;;;;;;;;;;;22.52;25.47;92876.47;2058404;69;20058;-72
2022/04/14 08:30:34;;;;;;;;;;;;;;;24.31;23.97;92872.84;2058621;69;20200;-74
2022/04/14 08:33:00;;;;;;;;;;;;;;;23.74;24.32;92877.84;2058533;69;20557;-74
2022/04/14 08:35:26;;;;;;;;;;;;;;;23.31;24.78;92867.81;2058700;69;20060;-70
2022/04/14 08:37:51;;;;;;;;;;;;;;;23.83;24.19;92865.06;2058344;69;20058;-69
2022/04/14 08:40:18;;;;;;;;;;;;;;;24.44;23.25;92867.28;2058564;69;20060;-71
2022/04/14 08:42:59;;;;;;;;;;;;;;;23.58;23.17;92858.19;2058542;69;20124;-74
2022/04/14 08:45:27;;;;;;;;;;;;;;;24.21;24.45;92860.50;2058809;69;20054;-71
2022/04/14 08:47:54;;;;;;;;;;;;;;;24.46;23.99;92855.78;2058340;69;20121;-76
2022/04/14 08:50:19;;;;;;;;;;;;;;;24.06;23.70;92856.72;2058125;69;20696;-75
2022/04/14 08:52:45;;;;;;;;;;;;;;;24.15;21.86;92855.41;2058275;69;20145;-68
2022/04/14 08:55:14;;;;;;;;;;;;;;;25.09;22.49;92854.31;2058514;69;20050;-68
2022/04/14 08:57:43;;;;;;;;;;;;;;;24.09;21.71;92850.28;2057787;69;20129;-67
2022/04/14 09:00:10;;;;;;;;;;;;;;;24.77;23.44;92851.09;2056357;69;20536;-69
2022/04/14 09:02:36;;;;;;;;;;;;;;;24.68;21.50;92838.03;2058478;69;20060;-69
2022/04/14 09:05:02;;;;;;;;;;;;;;;25.26;21.72;92848.69;2058527;69;20149;-72
2022/04/14 09:07:27;;;;;;;;;;;;;;;25.26;23.12;92842.94;2058279;69;20057;-73
2022/04/14 09:09:53;;;;;;;;;;;;;;;25.34;21.58;92845.88;2057927;69;20049;-69
2022/04/14 09:12:19;;;;;;;;;;;;;;;25.17;21.14;92841.41;2058478;69;20061;-69
2022/04/14 09:14:45;;;;;;;;;;;;;;;25.62;21.06;92836.72;2058590;69;20046;-69
2022/04/14 09:17:11;;;;;;;;;;;;;;;27.08;21.19;92833.78;2058337;69;20417;-70
2022/04/14 09:19:37;;;;;;;;;;;;;;;27.14;21.14;92829.44;2058580;69;20061;-69
2022/04/14 09:22:07;;;;;;;;;;;;;;;27.39;21.46;92833.03;2058339;69;20085;-69
2022/04/14 09:24:40;;;;;;;;;;;;;;;27.14;21.94;92820.75;2058431;69;20046;-68
2022/04/14 09:27:06;;;;;;;;;;;;;;;27.75;20.72;92817.88;2058462;69;20046;-69
2022/04/14 09:29:31;;;;;;;;;;;;;;;29.23;18.21;92822.34;2058495;69;20084;-70
2022/04/14 09:31:57;;;;;;;;;;;;;;;28.58;20.06;92817.59;2058306;69;20471;-68
2022/04/14 09:34:42;;;;;;;;;;;;;;;28.32;18.68;92817.72;2058473;69;20413;-69
2022/04/14 09:37:08;;;;;;;;;;;;;;;26.08;20.60;92813.22;2058322;69;20073;-68
2022/04/14 09:39:53;;;;;;;;;;;;;;;25.80;20.74;92813.06;2058460;69;20458;-68
2022/04/14 09:42:22;;;;;;;;;;;;;;;26.60;22.09;92809.09;2058288;69;20516;-69
2022/04/14 09:44:50;;;;;;;;;;;;;;;26.61;20.18;92806.94;2058227;69;20568;-68
2022/04/14 09:47:42;;;;;;;;;;;;;;;26.55;19.87;92793.22;2058188;69;20144;-68
2022/04/14 09:50:24;;;;;;;;;;;;;;;26.85;20.49;92803.38;2057868;69;20054;-72
2022/04/14 09:52:57;;;;;;;;;;;;;;;25.90;21.35;92800.88;2057804;69;20508;-72
2022/04/14 09:55:22;;;;;;;;;;;;;;;26.44;21.73;92788.13;2058356;69;20498;-70
2022/04/14 09:58:06;;;;;;;;;;;;;;;25.72;21.64;92796.41;2058387;69;20049;-68
2022/04/14 10:00:36;;;;;;;;;;;;;;;27.44;21.69;92788.22;2058194;69;20440;-76
2022/04/14 10:03:08;;;;;;;;;;;;;;;26.83;22.28;92791.81;2058562;69;20399;-70
2022/04/14 10:05:34;;;;;;;;;;;;;;;27.09;21.82;92777.44;2058110;69;20052;-68
2022/04/14 10:08:00;;;;;;;;;;;;;;;28.45;20.50;92783.66;2058266;69;20065;-68
2022/04/14 10:10:25;;;;;;;;;;;;;;;28.51;20.59;92777.84;2058187;69;20476;-70
2022/04/14 10:13:00;;;;;;;;;;;;;;;28.90;19.78;92784.13;2058141;69;20054;-72
2022/04/14 10:15:26;;;;;;;;;;;;;;;29.63;19.01;92774.88;2058224;69;20098;-69
2022/04/14 10:17:52;;;;;;;;;;;;;;;30.00;19.58;92770.88;2058436;69;20050;-72
2022/04/14 10:20:19;;;;;;;;;;;;;;;29.52;19.99;92761.22;2058796;69;20089;-74
2022/04/14 10:22:45;;;;;;;;;;;;;;;29.46;19.90;92767.78;2058717;69;20502;-73
2022/04/14 10:25:12;;;;;;;;;;;;;;;30.95;19.37;92766.09;2059030;69;20143;-71
2022/04/14 10:27:39;;;;;;;;;;;;;;;31.41;18.48;92769.03;2058805;69;20053;-75
2022/04/14 10:30:05;;;;;;;;;;;;;;;30.84;18.90;92764.81;2058649;69;20058;-72
2022/04/14 10:32:32;;;;;;;;;;;;;;;30.75;18.56;92761.28;2058726;69;20062;-75
2022/04/14 10:34:59;;;;;;;;;;;;;;;30.88;18.59;92759.66;2058633;69;20050;-72
2022/04/14 10:37:30;;;;;;;;;;;;;;;31.94;19.00;92757.22;2058860;69;20053;-74
2022/04/14 10:39:56;;;;;;;;;;;;;;;31.72;17.20;92766.34;2059032;69;20054;-74
2022/04/14 10:42:26;;;;;;;;;;;;;;;31.36;18.20;92759.66;2058571;69;20049;-68
2022/04/14 10:44:52;;;;;;;;;;;;;;;32.11;17.54;92749.59;2058792;69;20062;-69
2022/04/14 10:47:31;;;;;;;;;;;;;;;32.28;18.19;92752.19;2059040;69;20498;-70
2022/04/14 10:49:57;;;;;;;;;;;;;;;30.57;18.57;92747.00;2058939;69;20173;-69
2022/04/14 10:52:24;;;;;;;;;;;;;;;33.08;17.48;92751.22;2058310;69;20097;-68
2022/04/14 10:54:59;;;;;;;;;;;;;;;35.06;16.96;92746.69;2055232;69;20223;-72
2022/04/14 10:57:34;;;;;;;;;;;;;;;35.73;16.59;92752.59;2057854;69;20488;-68
2022/04/14 11:00:00;;;;;;;;;;;;;;;36.23;14.76;92752.38;2057030;69;20092;-72
2022/04/14 11:02:45;;;;;;;;;;;;;;;38.95;13.65;92753.94;2055771;69;20149;-68
2022/04/14 11:05:30;;;;;;;;;;;;;;;38.19;13.51;92744.06;2055229;70;20050;-67
2022/04/14 11:08:15;;;;;;;;;;;;;;;39.48;12.86;92748.50;2056907;69;20061;-69
2022/04/14 11:10:51;;;;;;;;;;;;;;;41.86;11.92;92749.31;2057922;69;20085;-69
2022/04/14 11:13:16;;;;;;;;;;;;;;;40.05;11.98;92753.84;2055352;69;20490;-67
2022/04/14 11:15:42;;;;;;;;;;;;;;;38.95;11.78;92748.03;2058226;69;20058;-67
2022/04/14 11:18:07;;;;;;;;;;;;;;;42.23;10.78;92753.81;2058331;69;20085;-67
2022/04/14 11:20:37;;;;;;;;;;;;;;;41.99;10.05;92747.06;2058283;69;20049;-69
2022/04/14 11:23:06;;;;;;;;;;;;;;;39.29;11.74;92736.19;2058485;69;20131;-67
2022/04/14 11:25:41;;;;;;;;;;;;;;;40.11;10.98;92729.97;2058638;69;20493;-67
2022/04/14 11:28:26;;;;;;;;;;;;;;;42.01;10.44;92738.06;2058369;69;20145;-66
2022/04/14 11:30:56;;;;;;;;;;;;;;;40.80;11.27;92737.44;2058555;69;20061;-67
2022/04/14 11:33:21;;;;;;;;;;;;;;;40.22;10.86;92738.97;2058646;69;20482;-66
2022/04/14 11:35:47;;;;;;;;;;;;;;;41.44;10.86;92731.78;2057933;69;20060;-67
2022/04/14 11:38:31;;;;;;;;;;;;;;;44.91;9.40;92742.66;2056186;69;20544;-68
2022/04/14 11:40:57;;;;;;;;;;;;;;;45.55;8.78;92737.34;2055753;69;20518;-68
2022/04/14 11:43:23;;;;;;;;;;;;;;;45.75;9.55;92737.41;2056133;69;20089;-68
2022/04/14 11:45:49;;;;;;;;;;;;;;;46.96;9.36;92741.66;2056858;69;20188;-70
2022/04/14 11:48:15;;;;;;;;;;;;;;;47.04;8.83;92732.09;2055936;69;20060;-74
2022/04/14 11:50:40;;;;;;;;;;;;;;;46.00;8.29;92742.94;2056005;69;20437;-68
2022/04/14 11:53:06;;;;;;;;;;;;;;;43.80;8.07;92723.34;2055821;69;20046;-68
2022/04/14 11:55:38;;;;;;;;;;;;;;;45.66;8.25;92734.31;2056398;69;20053;-72
2022/04/14 11:58:04;;;;;;;;;;;;;;;47.42;8.08;92741.81;2055714;69;20046;-68
2022/04/14 12:00:30;;;;;;;;;;;;;;;47.96;8.52;92735.97;2057123;69;20077;-68
2022/04/14 12:02:59;;;;;;;;;;;;;;;48.11;8.04;92739.19;2058342;69;20418;-68
2022/04/14 12:05:25;;;;;;;;;;;;;;;46.92;8.07;92727.09;2057882;69;20054;-68
2022/04/14 12:08:04;;;;;;;;;;;;;;;45.86;7.32;92726.19;2057105;69;20529;-67
2022/04/14 12:10:29;;;;;;;;;;;;;;;47.32;8.14;92719.50;2057395;69;20410;-68
2022/04/14 12:13:04;;;;;;;;;;;;;;;48.24;8.29;92720.97;2057946;69;20053;-70
2022/04/14 12:15:30;;;;;;;;;;;;;;;48.06;7.83;92714.25;2058054;69;20073;-70
2022/04/14 12:18:04;;;;;;;;;;;;;;;48.70;7.42;92704.38;2058561;69;20522;-70
2022/04/14 12:20:34;;;;;;;;;;;;;;;47.09;7.75;92700.41;2058382;69;20050;-73
2022/04/14 12:23:00;;;;;;;;;;;;;;;43.93;8.19;92696.59;2057640;69;20070;-70
2022/04/14 12:25:27;;;;;;;;;;;;;;;45.78;8.48;92691.81;2058435;69;20522;-69
2022/04/14 12:27:54;;;;;;;;;;;;;;;42.63;9.34;92682.63;2057766;69;20137;-69
2022/04/14 12:30:21;;;;;;;;;;;;;;;43.85;9.45;92680.06;2057806;69;20451;-69
2022/04/14 12:32:47;;;;;;;;;;;;;;;46.24;8.42;92683.22;2057108;69;20414;-70
2022/04/14 12:35:28;;;;;;;;;;;;;;;47.82;8.14;92690.13;2057924;69;20057;-68
2022/04/14 12:37:54;;;;;;;;;;;;;;;48.02;7.34;92684.75;2057782;69;20141;-69
2022/04/14 12:40:24;;;;;;;;;;;;;;;47.71;8.32;92680.63;2058225;69;20074;-68
2022/04/14 12:42:49;;;;;;;;;;;;;;;47.96;8.09;92685.25;2058370;69;20050;-69
2022/04/14 12:45:15;;;;;;;;;;;;;;;44.65;8.09;92674.66;2057382;69;20104;-66
2022/04/14 12:47:42;;;;;;;;;;;;;;;42.60;7.35;92668.75;2055602;69;20058;-69